createdAt,value
2022-09-15T00:03:39.509Z,15.10
2022-09-15T00:08:05.158Z,15.10
2022-09-15T00:12:30.420Z,15.10
2022-09-15T00:16:55.872Z,15.10
2022-09-15T00:21:25.182Z,15.10
2022-09-15T00:25:53.956Z,15.10
2022-09-15T00:30:19.199Z,15.20
2022-09-15T00:34:44.633Z,15.10
2022-09-15T00:39:10.316Z,15.10
2022-09-15T00:43:41.695Z,15.10
2022-09-15T00:48:15.102Z,15.10
2022-09-15T00:53:01.614Z,15.10
2022-09-15T00:57:37.631Z,15.10
2022-09-15T01:02:12.362Z,15.10
2022-09-15T01:06:52.334Z,15.10
2022-09-15T01:11:17.896Z,15.10
2022-09-15T01:16:26.565Z,15.10
2022-09-15T01:21:15.049Z,15.10
2022-09-15T01:25:59.696Z,15.10
2022-09-15T01:30:26.084Z,15.10
2022-09-15T01:35:22.597Z,15.10
2022-09-15T01:39:50.500Z,15.10
2022-09-15T01:44:25.158Z,15.00
2022-09-15T01:48:54.428Z,15.00
2022-09-15T01:53:22.899Z,15.00
2022-09-15T01:57:48.426Z,15.00
2022-09-15T02:02:48.492Z,15.00
2022-09-15T02:07:36.515Z,15.00
2022-09-15T02:12:08.770Z,15.00
2022-09-15T02:16:36.614Z,15.00
2022-09-15T02:21:21.397Z,15.00
2022-09-15T02:25:52.710Z,15.00
2022-09-15T02:30:20.465Z,15.00
2022-09-15T02:34:50.510Z,15.00
2022-09-15T02:39:20.586Z,15.00
2022-09-15T02:43:50.330Z,15.00
2022-09-15T02:48:16.118Z,15.00
2022-09-15T02:52:41.547Z,15.00
2022-09-15T02:57:06.852Z,15.00
2022-09-15T03:01:32.307Z,15.00
2022-09-15T03:06:16.343Z,15.00
2022-09-15T03:10:41.654Z,15.00
2022-09-15T03:15:09.448Z,15.00
2022-09-15T03:19:34.634Z,15.00
2022-09-15T03:24:00.508Z,15.00
2022-09-15T03:28:27.272Z,15.00
2022-09-15T03:32:52.462Z,15.00
2022-09-15T03:37:17.838Z,15.00
2022-09-15T03:41:43.012Z,14.90
2022-09-15T03:46:11.597Z,14.90
2022-09-15T03:50:36.866Z,14.90
2022-09-15T03:55:02.078Z,14.90
2022-09-15T03:59:27.288Z,14.90
2022-09-15T04:03:52.799Z,14.90
2022-09-15T04:08:17.987Z,14.90
2022-09-15T04:12:43.338Z,14.90
2022-09-15T04:17:10.652Z,14.90
2022-09-15T04:21:35.938Z,14.90
2022-09-15T04:26:06.217Z,14.80
2022-09-15T04:30:31.459Z,14.80
2022-09-15T04:34:56.690Z,14.80
2022-09-15T04:39:22.473Z,14.80
2022-09-15T04:43:47.631Z,14.80
2022-09-15T04:48:12.857Z,14.80
2022-09-15T04:52:38.076Z,14.80
2022-09-15T04:57:03.376Z,14.70
2022-09-15T05:01:32.706Z,14.80
2022-09-15T05:05:57.965Z,14.80
2022-09-15T05:10:23.185Z,14.70
2022-09-15T05:14:48.490Z,14.70
2022-09-15T05:19:13.816Z,14.70
2022-09-15T05:23:39.975Z,14.70
2022-09-15T05:28:08.206Z,14.70
2022-09-15T05:32:33.729Z,14.70
2022-09-15T05:36:59.046Z,14.70
2022-09-15T05:41:26.352Z,14.70
2022-09-15T05:45:55.139Z,14.60
2022-09-15T05:50:20.487Z,14.60
2022-09-15T05:54:45.881Z,14.60
2022-09-15T05:59:11.280Z,14.60
2022-09-15T06:03:36.639Z,14.60
2022-09-15T06:08:02.181Z,14.70
2022-09-15T06:12:27.699Z,14.80
2022-09-15T06:16:53.023Z,14.80
2022-09-15T06:21:25.403Z,14.90
2022-09-15T06:25:50.653Z,14.90
2022-09-15T06:30:15.962Z,14.90
2022-09-15T06:34:41.333Z,14.90
2022-09-15T06:39:06.836Z,15.00
2022-09-15T06:43:33.511Z,15.00
2022-09-15T06:48:22.973Z,15.00
2022-09-15T06:52:44.470Z,15.10
2022-09-15T06:57:09.701Z,15.20
2022-09-15T07:01:35.051Z,15.30
2022-09-15T07:06:00.311Z,15.30
2022-09-15T07:10:25.580Z,15.40
2022-09-15T07:14:50.908Z,15.40
2022-09-15T07:19:16.189Z,15.50
2022-09-15T07:23:42.344Z,15.50
2022-09-15T07:28:07.607Z,15.60
2022-09-15T07:32:33.553Z,15.60
2022-09-15T07:36:58.861Z,15.70
2022-09-15T07:41:30.189Z,15.80
2022-09-15T07:45:58.465Z,16.00
2022-09-15T07:50:23.754Z,16.00
2022-09-15T07:54:49.082Z,16.10
2022-09-15T07:59:14.413Z,16.20
2022-09-15T08:03:42.785Z,16.30
2022-09-15T08:08:08.522Z,16.40
2022-09-15T08:12:33.842Z,16.50
2022-09-15T08:17:08.137Z,16.50
2022-09-15T08:21:36.003Z,16.60
2022-09-15T08:26:01.474Z,16.80
2022-09-15T08:30:27.653Z,16.90
2022-09-15T08:34:52.946Z,17.00
2022-09-15T08:39:18.210Z,17.10
2022-09-15T08:44:08.204Z,17.20
2022-09-15T08:49:05.403Z,17.30
2022-09-15T08:53:40.731Z,17.40
2022-09-15T08:58:06.410Z,17.50
2022-09-15T09:03:28.129Z,17.50
2022-09-15T09:08:09.548Z,17.60
2022-09-15T09:13:23.799Z,17.70
2022-09-15T09:18:26.149Z,17.80
2022-09-15T09:22:54.442Z,17.90
2022-09-15T09:27:29.630Z,18.00
2022-09-15T09:31:56.716Z,18.20
2022-09-15T09:36:22.394Z,18.10
2022-09-15T09:40:48.952Z,18.20
2022-09-15T09:45:16.579Z,18.40
2022-09-15T09:49:49.975Z,18.50
2022-09-15T09:54:20.655Z,18.70
2022-09-15T09:58:46.108Z,18.70
2022-09-15T10:03:30.596Z,18.60
2022-09-15T10:08:03.137Z,18.40
2022-09-15T10:12:41.818Z,17.80
2022-09-15T10:17:20.189Z,17.60
2022-09-15T10:21:45.573Z,17.70
2022-09-15T10:26:16.702Z,17.80
2022-09-15T10:31:11.143Z,17.80
2022-09-15T10:35:42.531Z,18.00
2022-09-15T10:40:52.349Z,18.20
2022-09-15T10:45:26.314Z,18.30
2022-09-15T10:50:12.052Z,18.30
2022-09-15T10:55:04.138Z,18.30
2022-09-15T10:59:48.149Z,18.40
2022-09-15T11:04:39.898Z,18.50
2022-09-15T11:09:26.686Z,18.70
2022-09-15T11:14:13.727Z,18.80
2022-09-15T11:19:01.084Z,18.80
2022-09-15T11:23:37.503Z,19.00
2022-09-15T11:28:29.461Z,19.10
2022-09-15T11:33:09.763Z,19.00
2022-09-15T11:37:44.350Z,18.80
2022-09-15T11:42:20.596Z,18.80
2022-09-15T11:47:01.716Z,18.80
2022-09-15T11:51:29.143Z,18.70
2022-09-15T11:56:16.099Z,18.70
2022-09-15T12:01:08.968Z,18.80
2022-09-15T12:05:52.087Z,18.90
2022-09-15T12:10:38.145Z,19.00
2022-09-15T12:15:04.055Z,19.10
2022-09-15T12:20:17.483Z,19.20
2022-09-15T12:25:11.230Z,19.40
2022-09-15T12:29:42.487Z,19.50
2022-09-15T12:34:35.311Z,19.30
2022-09-15T12:39:02.656Z,19.20
2022-09-15T12:43:31.741Z,19.00
2022-09-15T12:48:29.707Z,19.00
2022-09-15T12:53:12.598Z,18.90
2022-09-15T12:57:38.155Z,18.90
2022-09-15T13:02:03.581Z,18.90
2022-09-15T13:06:35.370Z,18.80
2022-09-15T13:11:38.536Z,18.90
2022-09-15T13:16:12.222Z,19.00
2022-09-15T13:20:39.589Z,19.20
2022-09-15T13:25:16.529Z,19.50
2022-09-15T13:30:09.790Z,19.70
2022-09-15T13:39:51.842Z,18.70
2022-09-15T13:44:44.601Z,18.10
2022-09-15T13:49:50.504Z,17.90
2022-09-15T13:54:19.195Z,18.00
2022-09-15T13:59:06.737Z,18.00
2022-09-15T14:03:43.748Z,18.00
2022-09-15T14:08:25.124Z,17.90
2022-09-15T14:12:51.578Z,17.90
2022-09-15T14:17:25.218Z,17.90
2022-09-15T14:21:53.802Z,18.00
2022-09-15T14:26:28.284Z,18.00
2022-09-15T14:30:54.268Z,18.10
2022-09-15T14:35:24.843Z,18.00
2022-09-15T14:39:58.198Z,18.00
2022-09-15T14:49:12.239Z,17.90
2022-09-15T14:53:41.461Z,18.20
2022-09-15T14:58:16.021Z,18.60
2022-09-15T15:03:27.260Z,18.80
2022-09-15T15:07:55.215Z,18.60
2022-09-15T15:12:27.686Z,18.30
2022-09-15T15:17:00.044Z,18.20
2022-09-15T15:21:43.509Z,18.00
2022-09-15T15:26:40.457Z,17.80
2022-09-15T15:31:31.581Z,17.70
2022-09-15T15:36:05.861Z,17.60
2022-09-15T15:40:32.006Z,17.50
2022-09-15T15:45:09.370Z,17.40
2022-09-15T15:49:36.786Z,17.30
2022-09-15T15:54:04.540Z,17.20
2022-09-15T15:58:29.731Z,17.20
2022-09-15T16:02:55.028Z,17.20
2022-09-15T16:07:23.185Z,17.20
2022-09-15T16:11:48.777Z,17.10
2022-09-15T16:16:24.109Z,16.90
2022-09-15T16:20:49.460Z,16.80
2022-09-15T16:25:40.811Z,16.80
2022-09-15T16:30:08.314Z,16.80
2022-09-15T16:34:33.609Z,16.60
2022-09-15T16:38:58.786Z,16.50
2022-09-15T16:43:24.198Z,16.40
2022-09-15T16:47:49.505Z,16.40
2022-09-15T16:52:16.261Z,16.30
2022-09-15T16:56:42.050Z,16.30
2022-09-15T17:01:16.232Z,16.20
2022-09-15T17:05:48.554Z,16.20
2022-09-15T17:10:14.925Z,16.20
2022-09-15T17:14:40.286Z,16.20
2022-09-15T17:19:05.484Z,16.10
2022-09-15T17:23:35.252Z,16.00
2022-09-15T17:28:00.898Z,16.00
2022-09-15T17:32:26.086Z,15.90
2022-09-15T17:36:51.352Z,15.90
2022-09-15T17:41:19.729Z,15.80
2022-09-15T17:45:45.561Z,15.70
2022-09-15T17:50:11.797Z,15.70
2022-09-15T17:54:36.998Z,15.70
2022-09-15T17:59:02.273Z,15.60
2022-09-15T18:03:34.626Z,15.50
2022-09-15T18:08:05.002Z,15.50
2022-09-15T18:12:30.518Z,15.40
2022-09-15T18:16:55.795Z,15.40
2022-09-15T18:21:29.565Z,15.30
2022-09-15T18:25:54.926Z,15.20
2022-09-15T18:30:22.420Z,15.10
2022-09-15T18:34:49.025Z,15.10
2022-09-15T18:39:14.355Z,15.10
2022-09-15T18:43:42.122Z,15.00
2022-09-15T18:48:11.948Z,14.90
2022-09-15T18:52:40.499Z,14.80
2022-09-15T18:57:05.791Z,14.80
2022-09-15T19:01:31.090Z,14.70
2022-09-15T19:05:56.400Z,14.60
2022-09-15T19:10:22.654Z,14.60
2022-09-15T19:14:48.397Z,14.50
2022-09-15T19:19:13.643Z,14.40
2022-09-15T19:23:39.288Z,14.30
2022-09-15T19:28:04.536Z,14.30
2022-09-15T19:32:32.365Z,14.20
2022-09-15T19:36:57.822Z,14.10
2022-09-15T19:41:23.313Z,14.10
2022-09-15T19:45:48.624Z,14.00
2022-09-15T19:50:13.886Z,14.00
2022-09-15T19:54:39.073Z,13.90
2022-09-15T19:59:06.082Z,13.90
2022-09-15T20:03:31.299Z,13.80
2022-09-15T20:07:58.118Z,13.70
2022-09-15T20:12:25.677Z,13.60
2022-09-15T20:16:50.952Z,13.60
2022-09-15T20:21:27.120Z,13.60
2022-09-15T20:26:09.271Z,13.50
2022-09-15T20:30:34.634Z,13.50
2022-09-15T20:34:59.983Z,13.40
2022-09-15T20:39:25.863Z,13.40
2022-09-15T20:43:51.857Z,13.40
2022-09-15T20:48:17.096Z,13.30
2022-09-15T20:52:42.495Z,13.30
2022-09-15T20:57:07.886Z,13.20
2022-09-15T21:01:36.653Z,13.20
2022-09-15T21:06:06.069Z,13.20
2022-09-15T21:10:31.419Z,13.20
2022-09-15T21:14:57.868Z,13.10
2022-09-15T21:19:23.109Z,13.10
2022-09-15T21:23:52.438Z,13.00
2022-09-15T21:28:17.698Z,13.00
2022-09-15T21:32:43.194Z,12.90
2022-09-15T21:37:09.860Z,12.90
2022-09-15T21:41:35.922Z,12.80
2022-09-15T21:46:03.518Z,12.80
2022-09-15T21:50:29.888Z,12.80
2022-09-15T21:54:55.087Z,12.70
2022-09-15T21:59:20.304Z,12.70
2022-09-15T22:03:54.725Z,12.70
2022-09-15T22:08:19.989Z,12.70
2022-09-15T22:12:45.202Z,12.70
2022-09-15T22:17:10.456Z,12.60
2022-09-15T22:21:37.138Z,12.60
2022-09-15T22:26:28.005Z,12.60
2022-09-15T22:30:58.593Z,12.50
2022-09-15T22:35:25.013Z,12.50
2022-09-15T22:39:58.970Z,12.50
2022-09-15T22:44:24.773Z,12.40
2022-09-15T22:48:50.004Z,12.40
2022-09-15T22:53:15.237Z,12.40
2022-09-15T22:57:41.667Z,12.40
2022-09-15T23:02:06.954Z,12.40
2022-09-15T23:06:34.506Z,12.30
2022-09-15T23:11:09.219Z,12.30
2022-09-15T23:15:35.098Z,12.30
2022-09-15T23:20:01.257Z,12.30
2022-09-15T23:24:26.633Z,12.30
2022-09-15T23:28:52.348Z,12.30
2022-09-15T23:33:17.784Z,12.30
2022-09-15T23:37:42.978Z,12.30
2022-09-15T23:42:08.249Z,12.30
2022-09-15T23:46:33.879Z,12.30
2022-09-15T23:50:59.837Z,12.30
2022-09-15T23:55:25.120Z,12.30
2022-09-15T23:59:50.333Z,12.20
